createdAt,value
2017-02-08T00:00:39.505Z,0
2017-02-08T00:01:39.480Z,0
2017-02-08T00:02:39.450Z,0
2017-02-08T00:03:39.810Z,0
2017-02-08T00:04:39.417Z,0
2017-02-08T00:05:39.405Z,0
2017-02-08T00:06:39.010Z,0
2017-02-08T00:07:39.365Z,0
2017-02-08T00:08:39.355Z,0
2017-02-08T00:09:39.335Z,0
2017-02-08T00:10:39.306Z,0
2017-02-08T00:11:39.308Z,0
2017-02-08T00:12:39.272Z,0
2017-02-08T00:13:39.268Z,0
2017-02-08T00:14:39.273Z,0
2017-02-08T00:15:39.221Z,0
2017-02-08T00:16:39.209Z,0
2017-02-08T00:17:39.190Z,0
2017-02-08T00:18:39.177Z,0
2017-02-08T00:19:39.152Z,0
2017-02-08T00:20:39.136Z,0
2017-02-08T00:21:39.113Z,0
2017-02-08T00:22:39.105Z,0
2017-02-08T00:23:39.088Z,0
2017-02-08T00:24:39.070Z,0
2017-02-08T00:25:39.055Z,0
2017-02-08T00:26:39.027Z,0
2017-02-08T00:27:39.015Z,0
2017-02-08T00:28:39.000Z,0
2017-02-08T00:29:38.982Z,0
2017-02-08T00:30:38.970Z,0
2017-02-08T00:31:38.938Z,0
2017-02-08T00:32:38.922Z,0
2017-02-08T00:33:38.917Z,0
2017-02-08T00:34:38.877Z,0
2017-02-08T00:35:38.466Z,0
2017-02-08T00:36:38.864Z,0
2017-02-08T00:37:38.836Z,0
2017-02-08T00:38:38.810Z,0
2017-02-08T00:39:38.793Z,0
2017-02-08T00:40:38.375Z,0
2017-02-08T00:41:38.357Z,0
2017-02-08T00:42:38.747Z,0
2017-02-08T00:43:38.755Z,0
2017-02-08T00:44:38.745Z,0
2017-02-08T00:45:38.690Z,0
2017-02-08T00:46:38.664Z,0
2017-02-08T00:47:38.650Z,0
2017-02-08T00:48:38.643Z,0
2017-02-08T00:49:38.609Z,0
2017-02-08T00:50:38.602Z,0
2017-02-08T00:51:38.585Z,0
2017-02-08T00:52:38.572Z,0
2017-02-08T00:53:38.552Z,0
2017-02-08T00:54:38.531Z,0
2017-02-08T00:55:38.516Z,0
2017-02-08T00:56:38.508Z,0
2017-02-08T00:57:38.474Z,0
2017-02-08T00:58:38.452Z,0
2017-02-08T00:59:38.435Z,0
2017-02-08T01:00:38.412Z,0
2017-02-08T01:01:38.411Z,0
2017-02-08T01:02:38.378Z,0
2017-02-08T01:03:38.361Z,0
2017-02-08T01:04:38.386Z,0
2017-02-08T01:05:38.333Z,0
2017-02-08T01:06:38.331Z,0
2017-02-08T01:07:38.290Z,0
2017-02-08T01:08:38.267Z,0
2017-02-08T01:09:38.268Z,0
2017-02-08T01:10:38.241Z,0
2017-02-08T01:11:38.217Z,0
2017-02-08T01:12:38.194Z,0
2017-02-08T01:13:38.189Z,0
2017-02-08T01:14:38.164Z,0
2017-02-08T01:15:38.141Z,0
2017-02-08T01:16:38.130Z,0
2017-02-08T01:17:38.136Z,0
2017-02-08T01:18:38.094Z,0
2017-02-08T01:19:38.078Z,0
2017-02-08T01:20:38.053Z,0
2017-02-08T01:21:38.050Z,0
2017-02-08T01:22:38.027Z,0
2017-02-08T01:23:37.997Z,0
2017-02-08T01:24:37.983Z,0
2017-02-08T01:25:37.962Z,0
2017-02-08T01:26:37.944Z,0
2017-02-08T01:27:37.926Z,0
2017-02-08T01:28:37.517Z,0
2017-02-08T01:29:37.890Z,0
2017-02-08T01:30:37.881Z,0
2017-02-08T01:31:37.866Z,0
2017-02-08T01:32:37.843Z,0
2017-02-08T01:33:37.452Z,0
2017-02-08T01:34:37.398Z,0
2017-02-08T01:35:37.800Z,0
2017-02-08T01:36:37.763Z,0
2017-02-08T01:37:37.746Z,0
2017-02-08T01:38:37.767Z,0
2017-02-08T01:39:37.309Z,0
2017-02-08T01:40:37.698Z,0
2017-02-08T01:41:37.691Z,0
2017-02-08T01:42:37.671Z,0
2017-02-08T01:43:37.644Z,0
2017-02-08T01:44:37.222Z,0
2017-02-08T01:45:37.601Z,0
2017-02-08T01:46:37.579Z,0
2017-02-08T01:47:37.570Z,0
2017-02-08T01:48:37.864Z,0
2017-02-08T01:49:37.530Z,0
2017-02-08T01:50:37.510Z,0
2017-02-08T01:51:37.499Z,0
2017-02-08T01:52:37.499Z,0
2017-02-08T01:53:37.461Z,0
2017-02-08T01:54:37.046Z,0
2017-02-08T01:55:37.419Z,0
2017-02-08T01:56:37.409Z,0
2017-02-08T01:57:37.400Z,0
2017-02-08T01:58:37.374Z,0
2017-02-08T01:59:37.356Z,0
2017-02-08T02:00:37.334Z,0
2017-02-08T02:01:37.316Z,0
2017-02-08T02:02:45.844Z,0
2017-02-08T02:03:37.253Z,0
2017-02-08T02:04:37.224Z,0
2017-02-08T02:05:37.208Z,0
2017-02-08T02:06:36.792Z,0
2017-02-08T02:07:37.169Z,0
2017-02-08T02:08:37.161Z,0
2017-02-08T02:09:37.144Z,0
2017-02-08T02:10:37.129Z,0
2017-02-08T02:11:37.094Z,0
2017-02-08T02:12:37.088Z,0
2017-02-08T02:13:37.066Z,0
2017-02-08T02:14:37.051Z,0
2017-02-08T02:15:37.024Z,0
2017-02-08T02:16:36.611Z,0
2017-02-08T02:17:36.996Z,0
2017-02-08T02:18:36.968Z,0
2017-02-08T02:19:36.950Z,0
2017-02-08T02:20:36.535Z,0
2017-02-08T02:21:36.922Z,0
2017-02-08T02:22:36.913Z,0
2017-02-08T02:23:36.881Z,0
2017-02-08T02:24:36.872Z,0
2017-02-08T02:25:36.852Z,0
2017-02-08T02:26:36.825Z,0
2017-02-08T02:27:36.805Z,0
2017-02-08T02:28:36.785Z,0
2017-02-08T02:29:36.779Z,0
2017-02-08T02:30:36.780Z,0
2017-02-08T02:31:36.739Z,0
2017-02-08T02:32:36.728Z,0
2017-02-08T02:33:36.704Z,0
2017-02-08T02:34:36.682Z,0
2017-02-08T02:35:36.668Z,0
2017-02-08T02:36:36.685Z,0
2017-02-08T02:37:36.630Z,0
2017-02-08T02:38:36.613Z,0
2017-02-08T02:39:36.593Z,0
2017-02-08T02:40:36.571Z,0
2017-02-08T02:41:36.566Z,0
2017-02-08T02:42:36.540Z,0
2017-02-08T02:43:36.516Z,0
2017-02-08T02:44:36.512Z,0
2017-02-08T02:45:36.488Z,0
2017-02-08T02:46:36.458Z,0
2017-02-08T02:47:36.050Z,0
2017-02-08T02:48:36.439Z,0
2017-02-08T02:49:36.405Z,0
2017-02-08T02:50:36.384Z,0
2017-02-08T02:51:36.373Z,0
2017-02-08T02:52:36.354Z,0
2017-02-08T02:53:36.345Z,0
2017-02-08T02:54:36.311Z,0
2017-02-08T02:55:36.309Z,0
2017-02-08T02:56:36.289Z,0
2017-02-08T02:57:36.264Z,0
2017-02-08T02:58:36.234Z,0
2017-02-08T02:59:36.221Z,0
2017-02-08T03:00:36.210Z,0
2017-02-08T03:01:36.192Z,0
2017-02-08T03:02:35.779Z,0
2017-02-08T03:03:35.749Z,0
2017-02-08T03:04:36.144Z,0
2017-02-08T03:05:36.122Z,0
2017-02-08T03:06:36.103Z,0
2017-02-08T03:07:35.688Z,0
2017-02-08T03:08:36.081Z,0
2017-02-08T03:09:35.644Z,0
2017-02-08T03:10:36.030Z,0
2017-02-08T03:11:36.019Z,0
2017-02-08T03:12:35.986Z,0
2017-02-08T03:13:35.973Z,0
2017-02-08T03:14:35.947Z,0
2017-02-08T03:15:35.931Z,0
2017-02-08T03:16:35.932Z,0
2017-02-08T03:17:35.895Z,0
2017-02-08T03:18:35.878Z,0
2017-02-08T03:19:35.459Z,0
2017-02-08T03:20:35.839Z,0
2017-02-08T03:21:35.822Z,0
2017-02-08T03:22:35.804Z,0
2017-02-08T03:23:35.793Z,0
2017-02-08T03:24:35.785Z,0
2017-02-08T03:25:35.761Z,0
2017-02-08T03:26:35.744Z,0
2017-02-08T03:27:35.312Z,0
2017-02-08T03:28:35.693Z,0
2017-02-08T03:29:35.694Z,0
2017-02-08T03:30:35.260Z,0
2017-02-08T03:31:35.649Z,0
2017-02-08T03:32:35.635Z,0
2017-02-08T03:33:35.621Z,0
2017-02-08T03:34:35.631Z,0
2017-02-08T03:35:34.770Z,0
2017-02-08T03:36:35.551Z,0
2017-02-08T03:37:35.531Z,0
2017-02-08T03:38:35.119Z,0
2017-02-08T03:39:35.106Z,0
2017-02-08T03:40:35.497Z,0
2017-02-08T03:41:35.469Z,0
2017-02-08T03:42:35.049Z,0
2017-02-08T03:43:35.027Z,0
2017-02-08T03:44:35.424Z,0
2017-02-08T03:45:35.499Z,0
2017-02-08T03:46:35.375Z,0
2017-02-08T03:47:35.362Z,0
2017-02-08T03:48:35.334Z,0
2017-02-08T03:49:35.321Z,0
2017-02-08T03:50:35.302Z,0
2017-02-08T03:51:34.900Z,0
2017-02-08T03:52:35.274Z,0
2017-02-08T03:53:35.267Z,0
2017-02-08T03:54:35.239Z,0
2017-02-08T03:55:35.218Z,0
2017-02-08T03:56:35.191Z,0
2017-02-08T03:57:35.172Z,0
2017-02-08T03:58:35.165Z,0
2017-02-08T03:59:35.140Z,0
2017-02-08T04:00:35.124Z,0
2017-02-08T04:01:35.111Z,0
2017-02-08T04:02:35.087Z,0
2017-02-08T04:03:35.069Z,0
2017-02-08T04:04:35.058Z,0
2017-02-08T04:05:34.636Z,0
2017-02-08T04:06:35.011Z,0
2017-02-08T04:07:35.036Z,0
2017-02-08T04:08:34.993Z,0
2017-02-08T04:09:34.971Z,0
2017-02-08T04:10:34.948Z,0
2017-02-08T04:11:34.926Z,0
2017-02-08T04:12:34.105Z,0
2017-02-08T04:13:34.489Z,0
2017-02-08T04:14:34.914Z,0
2017-02-08T04:15:34.448Z,0
2017-02-08T04:16:34.430Z,0
2017-02-08T04:17:34.410Z,0
2017-02-08T04:18:34.792Z,0
2017-02-08T04:19:34.384Z,0
2017-02-08T04:20:34.366Z,0
2017-02-08T04:21:34.773Z,0
2017-02-08T04:22:34.336Z,0
2017-02-08T04:23:34.704Z,0
2017-02-08T04:24:34.684Z,0
2017-02-08T04:25:34.677Z,0
2017-02-08T04:26:34.666Z,0
2017-02-08T04:27:34.640Z,0
2017-02-08T04:28:34.630Z,0
2017-02-08T04:29:34.199Z,0
2017-02-08T04:30:34.581Z,0
2017-02-08T04:31:34.552Z,0
2017-02-08T04:32:34.537Z,0
2017-02-08T04:33:34.527Z,0
2017-02-08T04:34:34.501Z,0
2017-02-08T04:35:34.487Z,0
2017-02-08T04:36:34.472Z,0
2017-02-08T04:37:34.465Z,0
2017-02-08T04:38:34.430Z,0
2017-02-08T04:39:34.422Z,0
2017-02-08T04:40:34.398Z,0
2017-02-08T04:41:34.375Z,0
2017-02-08T04:42:34.355Z,0
2017-02-08T04:43:34.347Z,0
2017-02-08T04:44:34.319Z,0
2017-02-08T04:45:34.306Z,0
2017-02-08T04:46:34.292Z,0
2017-02-08T04:47:34.274Z,0
2017-02-08T04:48:33.847Z,0
2017-02-08T04:49:34.235Z,0
2017-02-08T04:50:33.815Z,0
2017-02-08T04:51:33.798Z,0
2017-02-08T04:52:34.174Z,0
2017-02-08T04:53:33.763Z,0
2017-02-08T04:54:34.135Z,0
2017-02-08T04:55:34.114Z,0
2017-02-08T04:56:34.106Z,0
2017-02-08T04:57:34.090Z,0
2017-02-08T04:58:34.067Z,0
2017-02-08T04:59:34.048Z,0
2017-02-08T05:00:34.041Z,0
2017-02-08T05:01:34.015Z,0
2017-02-08T05:02:33.997Z,0
2017-02-08T05:03:33.979Z,0
2017-02-08T05:04:33.972Z,0
2017-02-08T05:05:33.950Z,0
2017-02-08T05:06:33.555Z,0
2017-02-08T05:07:33.503Z,0
2017-02-08T05:08:33.881Z,0
2017-02-08T05:09:33.464Z,0
2017-02-08T05:10:33.854Z,0
2017-02-08T05:11:33.823Z,0
2017-02-08T05:12:33.820Z,0
2017-02-08T05:13:33.823Z,0
2017-02-08T05:14:33.391Z,0
2017-02-08T05:15:33.764Z,0
2017-02-08T05:16:33.740Z,0
2017-02-08T05:17:33.721Z,0
2017-02-08T05:18:33.716Z,0
2017-02-08T05:19:33.679Z,0
2017-02-08T05:20:33.665Z,0
2017-02-08T05:21:33.652Z,0
2017-02-08T05:22:33.627Z,0
2017-02-08T05:23:33.612Z,0
2017-02-08T05:24:33.596Z,0
2017-02-08T05:25:33.584Z,0
2017-02-08T05:26:33.557Z,0
2017-02-08T05:27:33.143Z,0
2017-02-08T05:28:33.124Z,0
2017-02-08T05:29:33.516Z,0
2017-02-08T05:30:33.490Z,0
2017-02-08T05:31:33.461Z,0
2017-02-08T05:32:33.455Z,0
2017-02-08T05:33:33.438Z,0
2017-02-08T05:34:33.421Z,0
2017-02-08T05:35:32.994Z,0
2017-02-08T05:36:33.411Z,0
2017-02-08T05:37:33.355Z,0
2017-02-08T05:38:33.346Z,0
2017-02-08T05:39:33.333Z,0
2017-02-08T05:40:33.308Z,0
2017-02-08T05:41:33.290Z,0
2017-02-08T05:42:33.270Z,0
2017-02-08T05:43:33.241Z,0
2017-02-08T05:44:33.233Z,0
2017-02-08T05:45:33.215Z,0
2017-02-08T05:46:33.186Z,0
2017-02-08T05:47:33.171Z,0
2017-02-08T05:48:32.760Z,0
2017-02-08T05:49:33.134Z,0
2017-02-08T05:50:33.121Z,0
2017-02-08T05:51:33.094Z,0
2017-02-08T05:52:33.084Z,0
2017-02-08T05:53:33.062Z,0
2017-02-08T05:54:33.041Z,0
2017-02-08T05:55:33.024Z,0
2017-02-08T05:56:33.001Z,0
2017-02-08T05:57:32.980Z,0
2017-02-08T05:58:32.965Z,0
2017-02-08T05:59:32.947Z,0
2017-02-08T06:00:32.944Z,0
2017-02-08T06:01:32.908Z,0
2017-02-08T06:02:32.892Z,0
2017-02-08T06:03:32.872Z,0
2017-02-08T06:04:32.859Z,0
2017-02-08T06:05:32.887Z,0
2017-02-08T06:06:32.839Z,0
2017-02-08T06:07:32.809Z,0
2017-02-08T06:08:32.788Z,0
2017-02-08T06:09:32.769Z,0
2017-02-08T06:10:32.357Z,0
2017-02-08T06:11:32.735Z,0
2017-02-08T06:12:32.722Z,0
2017-02-08T06:13:32.695Z,4
2017-02-08T06:14:32.671Z,4
2017-02-08T06:15:32.656Z,4
2017-02-08T06:16:32.633Z,0
2017-02-08T06:17:32.616Z,4
2017-02-08T06:18:32.606Z,4
2017-02-08T06:19:32.588Z,4
2017-02-08T06:20:32.571Z,4
2017-02-08T06:21:32.553Z,8
2017-02-08T06:22:32.525Z,8
2017-02-08T06:23:32.524Z,8
2017-02-08T06:24:32.493Z,8
2017-02-08T06:25:32.483Z,12
2017-02-08T06:26:32.460Z,12
2017-02-08T06:27:32.427Z,8
2017-02-08T06:28:32.426Z,12
2017-02-08T06:29:32.404Z,12
2017-02-08T06:30:34.873Z,16
2017-02-08T06:31:32.363Z,20
2017-02-08T06:32:32.347Z,20
2017-02-08T06:33:32.327Z,24
2017-02-08T06:34:32.317Z,28
2017-02-08T06:35:32.287Z,32
2017-02-08T06:36:32.274Z,36
2017-02-08T06:37:32.259Z,40
2017-02-08T06:38:32.260Z,48
2017-02-08T06:39:32.223Z,52
2017-02-08T06:40:32.194Z,56
2017-02-08T06:41:32.177Z,64
2017-02-08T06:42:32.166Z,68
2017-02-08T06:43:32.146Z,72
2017-02-08T06:44:32.132Z,68
2017-02-08T06:45:32.102Z,72
2017-02-08T06:46:32.091Z,72
2017-02-08T06:47:32.073Z,72
2017-02-08T06:48:32.042Z,76
2017-02-08T06:49:32.023Z,80
2017-02-08T06:50:32.014Z,84
2017-02-08T06:51:32.003Z,92
2017-02-08T06:52:31.981Z,96
2017-02-08T06:53:31.957Z,104
2017-02-08T06:54:31.942Z,112
2017-02-08T06:55:31.929Z,116
2017-02-08T06:56:31.510Z,128
2017-02-08T06:57:31.878Z,136
2017-02-08T06:58:31.854Z,144
2017-02-08T06:59:31.850Z,152
2017-02-08T07:00:31.819Z,156
2017-02-08T07:01:31.820Z,164
2017-02-08T07:02:31.827Z,168
2017-02-08T07:03:31.375Z,180
2017-02-08T07:04:31.747Z,184
2017-02-08T07:05:31.735Z,196
2017-02-08T07:06:31.710Z,212
2017-02-08T07:07:31.691Z,228
2017-02-08T07:08:31.676Z,240
2017-02-08T07:09:31.656Z,260
2017-02-08T07:10:31.642Z,272
2017-02-08T07:11:31.616Z,288
2017-02-08T07:12:31.598Z,300
2017-02-08T07:13:31.578Z,312
2017-02-08T07:14:31.587Z,324
2017-02-08T07:15:31.544Z,344
2017-02-08T07:16:31.539Z,360
2017-02-08T07:17:31.514Z,380
2017-02-08T07:18:31.495Z,388
2017-02-08T07:19:31.086Z,408
2017-02-08T07:20:31.453Z,432
2017-02-08T07:21:31.469Z,444
2017-02-08T07:22:31.424Z,464
2017-02-08T07:23:31.397Z,480
2017-02-08T07:24:31.393Z,484
2017-02-08T07:25:31.372Z,468
2017-02-08T07:26:31.338Z,436
2017-02-08T07:27:31.362Z,440
2017-02-08T07:28:31.330Z,488
2017-02-08T07:29:31.292Z,552
2017-02-08T07:30:31.282Z,604
2017-02-08T07:31:31.298Z,628
2017-02-08T07:32:31.225Z,636
2017-02-08T07:33:31.223Z,620
2017-02-08T07:34:31.200Z,568
2017-02-08T07:35:31.171Z,512
2017-02-08T07:36:31.198Z,500
2017-02-08T07:37:31.138Z,492
2017-02-08T07:38:31.124Z,492
2017-02-08T07:39:31.094Z,520
2017-02-08T07:40:31.093Z,568
2017-02-08T07:41:31.076Z,628
2017-02-08T07:42:31.047Z,700
2017-02-08T07:43:31.029Z,748
2017-02-08T07:44:31.004Z,792
2017-02-08T07:45:30.991Z,812
2017-02-08T07:46:30.572Z,832
2017-02-08T07:47:30.944Z,852
2017-02-08T07:48:30.945Z,876
2017-02-08T07:49:30.519Z,904
2017-02-08T07:50:30.503Z,928
2017-02-08T07:51:30.881Z,976
2017-02-08T07:52:30.861Z,1020
2017-02-08T07:53:30.852Z,1048
2017-02-08T07:54:30.418Z,1076
2017-02-08T07:55:30.799Z,1092
2017-02-08T07:56:30.387Z,1108
2017-02-08T07:57:30.770Z,1116
2017-02-08T07:58:30.746Z,1120
2017-02-08T07:59:30.724Z,1096
2017-02-08T08:00:30.719Z,1052
2017-02-08T08:01:30.700Z,1004
2017-02-08T08:02:30.676Z,996
2017-02-08T08:03:30.666Z,988
2017-02-08T08:04:30.649Z,1028
2017-02-08T08:05:30.618Z,1080
2017-02-08T08:06:30.611Z,1128
2017-02-08T08:07:30.577Z,1200
2017-02-08T08:08:30.561Z,1296
2017-02-08T08:09:30.556Z,1356
2017-02-08T08:10:30.524Z,1428
2017-02-08T08:11:30.496Z,1468
2017-02-08T08:12:30.495Z,1512
2017-02-08T08:13:30.459Z,1556
2017-02-08T08:14:30.443Z,1604
2017-02-08T08:15:30.431Z,1620
2017-02-08T08:16:30.015Z,1640
2017-02-08T08:17:30.395Z,1640
2017-02-08T08:18:30.373Z,1684
2017-02-08T08:19:30.358Z,1720
2017-02-08T08:20:30.345Z,1808
2017-02-08T08:21:30.312Z,1860
2017-02-08T08:22:30.294Z,1900
2017-02-08T08:23:30.274Z,1992
2017-02-08T08:24:30.254Z,2120
2017-02-08T08:25:30.238Z,2160
2017-02-08T08:26:29.839Z,2252
2017-02-08T08:27:30.215Z,2284
2017-02-08T08:28:30.181Z,2284
2017-02-08T08:29:30.160Z,2308
2017-02-08T08:30:30.145Z,2256
2017-02-08T08:31:30.126Z,2252
2017-02-08T08:32:30.114Z,2280
2017-02-08T08:33:30.087Z,2328
2017-02-08T08:34:30.077Z,2360
2017-02-08T08:35:30.051Z,2416
2017-02-08T08:36:30.044Z,2472
2017-02-08T08:37:30.029Z,2504
2017-02-08T08:38:29.997Z,2480
2017-02-08T08:39:29.995Z,2504
2017-02-08T08:40:29.978Z,2496
2017-02-08T08:41:29.966Z,2448
2017-02-08T08:42:29.929Z,2392
2017-02-08T08:43:29.904Z,2436
2017-02-08T08:44:29.900Z,2456
2017-02-08T08:45:29.874Z,2428
2017-02-08T08:46:29.860Z,2496
2017-02-08T08:47:29.837Z,2548
2017-02-08T08:48:29.423Z,2600
2017-02-08T08:49:29.796Z,2672
2017-02-08T08:50:29.780Z,2708
2017-02-08T08:51:29.807Z,2736
2017-02-08T08:52:29.755Z,2780
2017-02-08T08:53:29.727Z,2852
2017-02-08T08:54:29.718Z,2928
2017-02-08T08:55:29.684Z,3024
2017-02-08T08:56:29.673Z,3164
2017-02-08T08:57:29.661Z,3316
2017-02-08T08:58:29.639Z,3412
2017-02-08T08:59:29.631Z,3460
2017-02-08T09:00:29.205Z,3580
2017-02-08T09:01:29.585Z,3660
2017-02-08T09:02:29.575Z,3672
2017-02-08T09:03:29.541Z,3672
2017-02-08T09:04:29.530Z,3640
2017-02-08T09:05:29.516Z,3640
2017-02-08T09:06:29.499Z,3656
2017-02-08T09:07:29.476Z,3724
2017-02-08T09:08:29.464Z,3880
2017-02-08T09:09:29.036Z,4024
2017-02-08T09:10:29.424Z,4076
2017-02-08T09:11:29.395Z,3960
2017-02-08T09:12:29.381Z,3848
2017-02-08T09:13:29.359Z,3756
2017-02-08T09:14:29.352Z,3732
2017-02-08T09:15:29.332Z,3756
2017-02-08T09:16:28.514Z,3876
2017-02-08T09:17:28.893Z,3940
2017-02-08T09:18:29.269Z,3924
2017-02-08T09:19:28.865Z,3852
2017-02-08T09:20:29.243Z,3816
2017-02-08T09:21:29.221Z,3828
2017-02-08T09:22:29.205Z,3848
2017-02-08T09:23:29.197Z,3916
2017-02-08T09:24:29.171Z,3916
2017-02-08T09:25:29.144Z,3828
2017-02-08T09:26:29.124Z,3724
2017-02-08T09:27:28.312Z,3664
2017-02-08T09:28:29.088Z,3576
2017-02-08T09:29:29.072Z,3508
2017-02-08T09:30:29.061Z,3472
2017-02-08T09:31:29.036Z,3468
2017-02-08T09:32:28.623Z,3460
2017-02-08T09:33:28.996Z,3436
2017-02-08T09:34:28.988Z,3380
2017-02-08T09:35:28.977Z,3368
2017-02-08T09:36:28.943Z,3348
2017-02-08T09:37:28.930Z,3312
2017-02-08T09:38:28.927Z,3208
2017-02-08T09:39:28.902Z,3084
2017-02-08T09:40:28.880Z,3012
2017-02-08T09:41:28.864Z,2984
2017-02-08T09:42:28.852Z,3004
2017-02-08T09:43:28.836Z,3096
2017-02-08T09:44:28.806Z,3220
2017-02-08T09:45:28.789Z,3324
2017-02-08T09:46:28.773Z,3352
2017-02-08T09:47:28.749Z,3380
2017-02-08T09:48:28.743Z,3444
2017-02-08T09:49:27.919Z,3480
2017-02-08T09:50:28.696Z,3492
2017-02-08T09:51:28.680Z,3488
2017-02-08T09:52:28.269Z,3492
2017-02-08T09:53:28.639Z,3512
2017-02-08T09:54:28.674Z,3496
2017-02-08T09:55:28.605Z,3444
2017-02-08T09:56:28.195Z,3368
2017-02-08T09:57:28.184Z,3296
2017-02-08T09:58:28.549Z,3256
2017-02-08T09:59:28.544Z,3280
2017-02-08T10:00:28.513Z,3340
2017-02-08T10:01:28.114Z,3400
2017-02-08T10:02:28.486Z,3460
2017-02-08T10:03:28.468Z,3496
2017-02-08T10:04:28.450Z,3504
2017-02-08T10:05:28.042Z,3488
2017-02-08T10:06:28.026Z,3444
2017-02-08T10:07:28.013Z,3400
2017-02-08T10:08:27.980Z,3424
2017-02-08T10:09:27.964Z,3476
2017-02-08T10:10:28.354Z,3540
2017-02-08T10:11:27.933Z,3612
2017-02-08T10:12:27.910Z,3660
2017-02-08T10:13:28.301Z,3616
2017-02-08T10:14:28.277Z,3480
2017-02-08T10:15:28.258Z,3356
2017-02-08T10:16:27.842Z,3292
2017-02-08T10:17:28.220Z,3292
2017-02-08T10:18:28.203Z,3276
2017-02-08T10:19:28.177Z,3264
2017-02-08T10:20:28.157Z,3260
2017-02-08T10:21:28.143Z,3240
2017-02-08T10:22:28.125Z,3260
2017-02-08T10:23:28.107Z,3360
2017-02-08T10:24:28.088Z,3472
2017-02-08T10:25:28.084Z,3588
2017-02-08T10:26:28.060Z,3696
2017-02-08T10:27:28.045Z,3800
2017-02-08T10:28:28.025Z,3840
2017-02-08T10:29:28.009Z,3860
2017-02-08T10:30:27.982Z,3944
2017-02-08T10:31:27.968Z,4096
2017-02-08T10:32:27.964Z,4288
2017-02-08T10:33:27.577Z,4380
2017-02-08T10:34:27.923Z,4480
2017-02-08T10:35:27.898Z,4608
2017-02-08T10:36:27.882Z,4620
2017-02-08T10:37:27.866Z,4580
2017-02-08T10:38:27.833Z,4492
2017-02-08T10:39:27.824Z,4384
2017-02-08T10:40:27.805Z,4224
2017-02-08T10:41:27.781Z,4112
2017-02-08T10:42:27.771Z,4072
2017-02-08T10:43:27.757Z,4032
2017-02-08T10:44:27.343Z,3972
2017-02-08T10:45:27.329Z,3904
2017-02-08T10:46:27.704Z,3852
2017-02-08T10:47:27.700Z,3788
2017-02-08T10:48:27.669Z,3776
2017-02-08T10:49:27.245Z,3844
2017-02-08T10:50:27.635Z,3952
2017-02-08T10:51:27.209Z,4068
2017-02-08T10:52:27.202Z,4196
2017-02-08T10:53:27.605Z,4268
2017-02-08T10:54:27.571Z,4324
2017-02-08T10:55:27.534Z,4320
2017-02-08T10:56:27.527Z,4252
2017-02-08T10:57:27.508Z,4232
2017-02-08T10:58:27.480Z,4280
2017-02-08T10:59:27.480Z,4352
2017-02-08T11:00:27.056Z,4396
2017-02-08T11:01:27.444Z,4372
2017-02-08T11:02:27.412Z,4344
2017-02-08T11:03:27.397Z,4328
2017-02-08T11:04:26.979Z,4300
2017-02-08T11:05:27.355Z,4408
2017-02-08T11:06:27.342Z,4596
2017-02-08T11:07:26.929Z,4824
2017-02-08T11:08:27.319Z,5060
2017-02-08T11:09:27.286Z,5296
2017-02-08T11:10:27.275Z,5512
2017-02-08T11:11:27.370Z,5652
2017-02-08T11:12:27.247Z,5612
2017-02-08T11:13:27.219Z,5532
2017-02-08T11:14:27.198Z,5340
2017-02-08T11:15:26.779Z,5000
2017-02-08T11:16:27.175Z,4964
2017-02-08T11:17:27.152Z,4772
2017-02-08T11:18:26.739Z,4552
2017-02-08T11:19:27.109Z,4500
2017-02-08T11:20:27.091Z,4532
2017-02-08T11:21:27.072Z,4588
2017-02-08T11:22:27.051Z,4680
2017-02-08T11:23:26.636Z,4740
2017-02-08T11:24:27.012Z,4796
2017-02-08T11:25:26.610Z,4876
2017-02-08T11:26:26.987Z,4916
2017-02-08T11:27:26.569Z,4972
2017-02-08T11:28:26.954Z,5132
2017-02-08T11:29:26.935Z,5180
2017-02-08T11:30:26.524Z,5220
2017-02-08T11:31:26.510Z,5256
2017-02-08T11:32:26.081Z,5380
2017-02-08T11:33:26.856Z,5388
2017-02-08T11:34:26.840Z,5532
2017-02-08T11:35:26.823Z,5616
2017-02-08T11:36:26.802Z,5548
2017-02-08T11:37:26.784Z,5464
2017-02-08T11:38:26.766Z,5420
2017-02-08T11:39:26.765Z,5348
2017-02-08T11:40:26.738Z,5296
2017-02-08T11:41:26.319Z,5124
2017-02-08T11:42:26.717Z,5056
2017-02-08T11:43:26.683Z,5112
2017-02-08T11:44:26.260Z,5160
2017-02-08T11:45:26.640Z,5264
2017-02-08T11:46:26.626Z,5400
2017-02-08T11:47:26.614Z,5508
2017-02-08T11:48:26.602Z,5584
2017-02-08T11:49:26.607Z,5612
2017-02-08T11:50:26.554Z,5536
2017-02-08T11:51:26.141Z,5504
2017-02-08T11:52:26.533Z,5512
2017-02-08T11:53:26.503Z,5712
2017-02-08T11:54:26.487Z,5736
2017-02-08T11:55:26.474Z,5784
2017-02-08T11:56:26.444Z,5840
2017-02-08T11:57:26.428Z,5756
2017-02-08T11:58:26.564Z,5732
2017-02-08T11:59:26.394Z,5684
2017-02-08T12:00:26.381Z,5704
2017-02-08T12:01:26.353Z,5644
2017-02-08T12:02:26.357Z,5620
2017-02-08T12:03:26.418Z,5604
2017-02-08T12:04:26.300Z,5528
2017-02-08T12:05:26.294Z,5424
2017-02-08T12:06:26.263Z,5320
2017-02-08T12:07:26.247Z,5312
2017-02-08T12:08:26.237Z,5280
2017-02-08T12:09:26.218Z,5312
2017-02-08T12:10:26.200Z,5208
2017-02-08T12:11:26.175Z,5024
2017-02-08T12:12:26.346Z,4868
2017-02-08T12:13:26.567Z,4688
2017-02-08T12:14:26.128Z,4584
2017-02-08T12:15:25.709Z,4492
2017-02-08T12:16:25.693Z,4432
2017-02-08T12:17:26.077Z,4408
2017-02-08T12:18:26.065Z,4496
2017-02-08T12:19:26.364Z,4556
2017-02-08T12:20:26.024Z,4596
2017-02-08T12:21:26.426Z,4552
2017-02-08T12:22:25.992Z,4488
2017-02-08T12:23:25.966Z,4360
2017-02-08T12:24:25.944Z,4300
2017-02-08T12:25:25.930Z,4228
2017-02-08T12:26:25.517Z,4232
2017-02-08T12:27:25.897Z,4196
2017-02-08T12:28:25.878Z,4172
2017-02-08T12:29:25.858Z,4168
2017-02-08T12:30:25.845Z,4256
2017-02-08T12:31:25.827Z,4348
2017-02-08T12:32:25.821Z,4352
2017-02-08T12:33:25.793Z,4360
2017-02-08T12:34:25.369Z,4512
2017-02-08T12:35:25.752Z,4656
2017-02-08T12:36:25.732Z,4760
2017-02-08T12:37:25.715Z,4916
2017-02-08T12:38:25.711Z,5036
2017-02-08T12:39:25.676Z,5164
2017-02-08T12:40:25.667Z,5176
2017-02-08T12:41:25.647Z,5064
2017-02-08T12:42:25.622Z,4984
2017-02-08T12:43:25.609Z,4952
2017-02-08T12:44:25.589Z,4920
2017-02-08T12:45:25.586Z,4996
2017-02-08T12:46:25.562Z,4976
2017-02-08T12:47:25.139Z,5048
2017-02-08T12:48:25.133Z,5100
2017-02-08T12:49:25.519Z,5192
2017-02-08T12:50:25.504Z,5276
2017-02-08T12:51:25.476Z,5200
2017-02-08T12:52:25.457Z,5200
2017-02-08T12:53:25.437Z,5116
2017-02-08T12:54:25.034Z,5080
2017-02-08T12:55:25.402Z,5040
2017-02-08T12:56:25.390Z,5084
2017-02-08T12:57:25.359Z,5288
2017-02-08T12:58:25.343Z,5344
2017-02-08T12:59:25.330Z,5248
2017-02-08T13:00:24.906Z,5212
2017-02-08T13:01:24.893Z,5120
2017-02-08T13:02:24.878Z,5020
2017-02-08T13:03:25.264Z,4996
2017-02-08T13:04:25.255Z,5128
2017-02-08T13:05:25.234Z,5168
2017-02-08T13:06:24.816Z,5228
2017-02-08T13:07:25.183Z,5228
2017-02-08T13:08:25.165Z,5208
2017-02-08T13:09:25.155Z,5112
2017-02-08T13:10:25.144Z,5040
2017-02-08T13:11:25.113Z,5028
2017-02-08T13:12:25.116Z,5016
2017-02-08T13:13:25.077Z,4924
2017-02-08T13:14:25.062Z,4840
2017-02-08T13:15:25.049Z,4768
2017-02-08T13:16:25.033Z,4804
2017-02-08T13:17:25.015Z,4904
2017-02-08T13:18:24.997Z,5012
2017-02-08T13:19:24.988Z,5116
2017-02-08T13:20:24.959Z,5160
2017-02-08T13:21:24.944Z,5304
2017-02-08T13:22:24.920Z,5260
2017-02-08T13:23:24.907Z,5184
2017-02-08T13:24:24.908Z,5236
2017-02-08T13:25:24.863Z,5312
2017-02-08T13:26:24.853Z,5332
2017-02-08T13:27:24.822Z,5444
2017-02-08T13:28:24.820Z,5476
2017-02-08T13:29:24.796Z,5592
2017-02-08T13:30:24.780Z,5656
2017-02-08T13:31:24.756Z,5520
2017-02-08T13:32:24.752Z,5476
2017-02-08T13:33:24.717Z,5460
2017-02-08T13:34:24.705Z,5412
2017-02-08T13:35:24.684Z,5296
2017-02-08T13:36:24.278Z,5116
2017-02-08T13:37:24.656Z,5000
2017-02-08T13:38:24.637Z,5060
2017-02-08T13:39:24.627Z,5056
2017-02-08T13:40:24.592Z,5124
2017-02-08T13:41:24.596Z,5108
2017-02-08T13:42:24.558Z,5116
2017-02-08T13:43:24.538Z,5008
2017-02-08T13:44:24.541Z,4916
2017-02-08T13:45:24.511Z,4896
2017-02-08T13:46:24.100Z,4820
2017-02-08T13:47:24.479Z,4744
2017-02-08T13:48:24.464Z,4796
2017-02-08T13:49:24.435Z,4992
2017-02-08T13:50:24.412Z,5044
2017-02-08T13:51:24.011Z,5128
2017-02-08T13:52:24.397Z,5016
2017-02-08T13:53:24.358Z,4832
2017-02-08T13:54:24.351Z,4744
2017-02-08T13:55:24.323Z,4652
2017-02-08T13:56:24.311Z,4568
2017-02-08T13:57:24.288Z,4580
2017-02-08T13:58:24.275Z,4568
2017-02-08T13:59:24.251Z,4672
2017-02-08T14:00:24.234Z,4756